sensor_id;sensor_type;location;lat;lon;timestamp;temperature;humidity
7248;DHT22;3665;51.034;13.642;2024-02-28T00:02:59;4.00;99.90
7248;DHT22;3665;51.034;13.642;2024-02-28T00:07:51;4.10;99.90
7248;DHT22;3665;51.034;13.642;2024-02-28T00:12:53;4.20;99.90
7248;DHT22;3665;51.034;13.642;2024-02-28T00:17:39;4.00;99.90
7248;DHT22;3665;51.034;13.642;2024-02-28T00:22:25;4.20;99.90
7248;DHT22;3665;51.034;13.642;2024-02-28T00:27:09;4.10;99.90
7248;DHT22;3665;51.034;13.642;2024-02-28T00:32:04;4.10;99.90
7248;DHT22;3665;51.034;13.642;2024-02-28T00:41:37;4.10;99.90
7248;DHT22;3665;51.034;13.642;2024-02-28T00:46:27;4.00;99.90
7248;DHT22;3665;51.034;13.642;2024-02-28T00:51:24;4.10;99.90
7248;DHT22;3665;51.034;13.642;2024-02-28T00:56:17;4.20;99.90
7248;DHT22;3665;51.034;13.642;2024-02-28T01:01:05;4.10;99.90
7248;DHT22;3665;51.034;13.642;2024-02-28T01:05:49;4.10;99.90
7248;DHT22;3665;51.034;13.642;2024-02-28T01:10:45;4.20;99.90
7248;DHT22;3665;51.034;13.642;2024-02-28T01:15:32;4.10;99.90
7248;DHT22;3665;51.034;13.642;2024-02-28T01:20:21;4.10;99.90
7248;DHT22;3665;51.034;13.642;2024-02-28T01:25:07;4.10;99.90
7248;DHT22;3665;51.034;13.642;2024-02-28T01:29:57;4.10;99.90
7248;DHT22;3665;51.034;13.642;2024-02-28T01:34:43;4.20;99.90
7248;DHT22;3665;51.034;13.642;2024-02-28T01:39:34;4.40;99.90
7248;DHT22;3665;51.034;13.642;2024-02-28T01:44:19;4.30;99.90
7248;DHT22;3665;51.034;13.642;2024-02-28T01:49:12;4.20;99.90
7248;DHT22;3665;51.034;13.642;2024-02-28T01:53:56;4.20;99.90
7248;DHT22;3665;51.034;13.642;2024-02-28T01:58:48;4.20;99.90
7248;DHT22;3665;51.034;13.642;2024-02-28T02:03:32;4.20;99.90
7248;DHT22;3665;51.034;13.642;2024-02-28T02:08:20;4.10;99.90
7248;DHT22;3665;51.034;13.642;2024-02-28T02:13:10;4.10;99.90
7248;DHT22;3665;51.034;13.642;2024-02-28T02:17:55;4.20;99.90
7248;DHT22;3665;51.034;13.642;2024-02-28T02:22:45;4.10;99.90
7248;DHT22;3665;51.034;13.642;2024-02-28T02:27:32;4.10;99.90
7248;DHT22;3665;51.034;13.642;2024-02-28T02:32:18;4.00;99.90
7248;DHT22;3665;51.034;13.642;2024-02-28T02:37:03;4.10;99.90
7248;DHT22;3665;51.034;13.642;2024-02-28T02:41:56;4.10;99.90
7248;DHT22;3665;51.034;13.642;2024-02-28T02:46:49;4.10;99.90
7248;DHT22;3665;51.034;13.642;2024-02-28T02:51:32;4.10;99.90
7248;DHT22;3665;51.034;13.642;2024-02-28T02:56:16;4.10;99.90
7248;DHT22;3665;51.034;13.642;2024-02-28T03:01:02;4.20;99.90
7248;DHT22;3665;51.034;13.642;2024-02-28T03:05:46;4.10;99.90
7248;DHT22;3665;51.034;13.642;2024-02-28T03:10:36;4.10;99.90
7248;DHT22;3665;51.034;13.642;2024-02-28T03:15:24;4.00;99.90
7248;DHT22;3665;51.034;13.642;2024-02-28T03:20:11;3.90;99.90
7248;DHT22;3665;51.034;13.642;2024-02-28T03:24:57;3.90;99.90
7248;DHT22;3665;51.034;13.642;2024-02-28T03:29:44;4.00;99.90
7248;DHT22;3665;51.034;13.642;2024-02-28T03:34:33;4.00;99.90
7248;DHT22;3665;51.034;13.642;2024-02-28T03:39:45;4.00;99.90
7248;DHT22;3665;51.034;13.642;2024-02-28T03:44:41;4.00;99.90
7248;DHT22;3665;51.034;13.642;2024-02-28T03:49:27;4.00;99.90
7248;DHT22;3665;51.034;13.642;2024-02-28T03:54:32;4.10;99.90
7248;DHT22;3665;51.034;13.642;2024-02-28T04:00:02;4.10;99.90
7248;DHT22;3665;51.034;13.642;2024-02-28T04:05:00;3.90;99.90
7248;DHT22;3665;51.034;13.642;2024-02-28T04:10:17;3.80;99.90
7248;DHT22;3665;51.034;13.642;2024-02-28T04:15:28;3.80;99.90
7248;DHT22;3665;51.034;13.642;2024-02-28T04:25:30;3.90;99.90
7248;DHT22;3665;51.034;13.642;2024-02-28T04:30:17;3.80;99.90
7248;DHT22;3665;51.034;13.642;2024-02-28T04:35:12;3.80;99.90
7248;DHT22;3665;51.034;13.642;2024-02-28T04:40:11;3.70;99.90
7248;DHT22;3665;51.034;13.642;2024-02-28T04:45:00;3.70;99.90
7248;DHT22;3665;51.034;13.642;2024-02-28T04:49:45;3.80;99.90
7248;DHT22;3665;51.034;13.642;2024-02-28T04:54:34;3.70;99.90
7248;DHT22;3665;51.034;13.642;2024-02-28T04:59:30;3.60;99.90
7248;DHT22;3665;51.034;13.642;2024-02-28T05:04:28;3.70;99.90
7248;DHT22;3665;51.034;13.642;2024-02-28T05:10:10;3.70;99.90
7248;DHT22;3665;51.034;13.642;2024-02-28T05:15:10;3.60;99.90
7248;DHT22;3665;51.034;13.642;2024-02-28T05:19:54;3.60;99.90
7248;DHT22;3665;51.034;13.642;2024-02-28T05:24:45;3.60;99.90
7248;DHT22;3665;51.034;13.642;2024-02-28T05:29:31;3.50;99.90
7248;DHT22;3665;51.034;13.642;2024-02-28T05:34:18;3.60;99.90
7248;DHT22;3665;51.034;13.642;2024-02-28T05:39:08;3.60;99.90
7248;DHT22;3665;51.034;13.642;2024-02-28T05:43:53;3.80;99.90
7248;DHT22;3665;51.034;13.642;2024-02-28T05:48:42;3.80;99.90
7248;DHT22;3665;51.034;13.642;2024-02-28T05:53:31;3.70;99.90
7248;DHT22;3665;51.034;13.642;2024-02-28T05:58:38;3.70;99.90
7248;DHT22;3665;51.034;13.642;2024-02-28T06:03:23;3.60;99.90
7248;DHT22;3665;51.034;13.642;2024-02-28T06:08:50;3.60;99.90
7248;DHT22;3665;51.034;13.642;2024-02-28T06:13:47;3.70;99.90
7248;DHT22;3665;51.034;13.642;2024-02-28T06:18:37;3.50;99.90
7248;DHT22;3665;51.034;13.642;2024-02-28T06:24:00;3.50;99.90
7248;DHT22;3665;51.034;13.642;2024-02-28T06:28:59;3.60;99.90
7248;DHT22;3665;51.034;13.642;2024-02-28T06:34:03;3.60;99.90
7248;DHT22;3665;51.034;13.642;2024-02-28T06:39:28;3.60;99.90
7248;DHT22;3665;51.034;13.642;2024-02-28T06:44:48;3.70;99.90
7248;DHT22;3665;51.034;13.642;2024-02-28T06:49:51;3.70;99.90
7248;DHT22;3665;51.034;13.642;2024-02-28T06:54:51;3.70;99.90
7248;DHT22;3665;51.034;13.642;2024-02-28T06:59:41;3.60;99.90
7248;DHT22;3665;51.034;13.642;2024-02-28T07:04:25;3.60;99.90
7248;DHT22;3665;51.034;13.642;2024-02-28T07:09:13;3.50;99.90
7248;DHT22;3665;51.034;13.642;2024-02-28T07:14:06;3.60;99.90
7248;DHT22;3665;51.034;13.642;2024-02-28T07:19:27;3.50;99.90
7248;DHT22;3665;51.034;13.642;2024-02-28T07:24:28;3.60;99.90
7248;DHT22;3665;51.034;13.642;2024-02-28T07:29:54;3.60;99.90
7248;DHT22;3665;51.034;13.642;2024-02-28T07:35:09;3.80;99.90
7248;DHT22;3665;51.034;13.642;2024-02-28T07:40:14;3.70;99.90
7248;DHT22;3665;51.034;13.642;2024-02-28T07:45:21;3.70;99.90
7248;DHT22;3665;51.034;13.642;2024-02-28T07:50:17;3.70;99.90
7248;DHT22;3665;51.034;13.642;2024-02-28T07:55:08;3.80;99.90
7248;DHT22;3665;51.034;13.642;2024-02-28T08:00:16;3.70;99.90
7248;DHT22;3665;51.034;13.642;2024-02-28T08:05:32;3.80;99.90
7248;DHT22;3665;51.034;13.642;2024-02-28T08:10:38;3.90;99.90
7248;DHT22;3665;51.034;13.642;2024-02-28T08:15:37;3.90;99.90
7248;DHT22;3665;51.034;13.642;2024-02-28T08:20:59;3.80;99.90
7248;DHT22;3665;51.034;13.642;2024-02-28T08:26:08;3.80;99.90
7248;DHT22;3665;51.034;13.642;2024-02-28T08:30:58;3.80;99.90
7248;DHT22;3665;51.034;13.642;2024-02-28T08:41:34;3.80;99.90
7248;DHT22;3665;51.034;13.642;2024-02-28T08:46:21;3.80;99.90
7248;DHT22;3665;51.034;13.642;2024-02-28T08:51:07;3.80;99.90
7248;DHT22;3665;51.034;13.642;2024-02-28T08:56:09;3.80;99.90
7248;DHT22;3665;51.034;13.642;2024-02-28T09:01:17;3.90;99.90
7248;DHT22;3665;51.034;13.642;2024-02-28T09:06:38;3.80;99.90
7248;DHT22;3665;51.034;13.642;2024-02-28T09:12:07;4.00;99.90
7248;DHT22;3665;51.034;13.642;2024-02-28T09:17:26;3.80;99.90
7248;DHT22;3665;51.034;13.642;2024-02-28T09:22:24;4.00;99.90
7248;DHT22;3665;51.034;13.642;2024-02-28T09:27:17;3.90;99.90
7248;DHT22;3665;51.034;13.642;2024-02-28T09:32:02;3.90;99.90
7248;DHT22;3665;51.034;13.642;2024-02-28T09:36:47;4.10;99.90
7248;DHT22;3665;51.034;13.642;2024-02-28T09:41:35;4.20;99.90
7248;DHT22;3665;51.034;13.642;2024-02-28T09:46:23;4.20;99.90
7248;DHT22;3665;51.034;13.642;2024-02-28T09:51:14;4.30;99.90
7248;DHT22;3665;51.034;13.642;2024-02-28T09:56:00;4.20;99.90
7248;DHT22;3665;51.034;13.642;2024-02-28T10:00:47;4.00;99.90
7248;DHT22;3665;51.034;13.642;2024-02-28T10:05:35;4.40;99.90
7248;DHT22;3665;51.034;13.642;2024-02-28T10:10:22;4.20;1.00
7248;DHT22;3665;51.034;13.642;2024-02-28T10:15:12;4.40;99.90
7248;DHT22;3665;51.034;13.642;2024-02-28T10:19:59;4.30;99.90
7248;DHT22;3665;51.034;13.642;2024-02-28T10:24:44;4.30;99.90
7248;DHT22;3665;51.034;13.642;2024-02-28T10:29:36;4.30;99.90
7248;DHT22;3665;51.034;13.642;2024-02-28T10:34:36;4.30;1.00
7248;DHT22;3665;51.034;13.642;2024-02-28T10:39:29;4.40;53.90
7248;DHT22;3665;51.034;13.642;2024-02-28T10:44:16;4.20;34.30
7248;DHT22;3665;51.034;13.642;2024-02-28T10:49:10;4.20;99.90
7248;DHT22;3665;51.034;13.642;2024-02-28T10:54:12;4.10;99.90
7248;DHT22;3665;51.034;13.642;2024-02-28T10:58:58;4.10;99.90
7248;DHT22;3665;51.034;13.642;2024-02-28T11:03:43;4.20;79.30
7248;DHT22;3665;51.034;13.642;2024-02-28T11:08:30;4.20;25.70
7248;DHT22;3665;51.034;13.642;2024-02-28T11:13:23;4.20;1.00
7248;DHT22;3665;51.034;13.642;2024-02-28T11:18:08;4.30;1.00
7248;DHT22;3665;51.034;13.642;2024-02-28T11:22:57;4.40;1.00
7248;DHT22;3665;51.034;13.642;2024-02-28T11:27:48;4.40;1.00
7248;DHT22;3665;51.034;13.642;2024-02-28T11:32:52;4.60;1.00
7248;DHT22;3665;51.034;13.642;2024-02-28T11:37:50;4.70;1.00
7248;DHT22;3665;51.034;13.642;2024-02-28T11:42:39;4.90;1.00
7248;DHT22;3665;51.034;13.642;2024-02-28T11:47:28;5.00;99.90
7248;DHT22;3665;51.034;13.642;2024-02-28T11:52:17;5.20;1.00
7248;DHT22;3665;51.034;13.642;2024-02-28T11:57:04;5.20;1.00
7248;DHT22;3665;51.034;13.642;2024-02-28T12:01:51;5.10;1.00
7248;DHT22;3665;51.034;13.642;2024-02-28T12:06:39;5.00;1.00
7248;DHT22;3665;51.034;13.642;2024-02-28T12:11:26;5.20;1.00
7248;DHT22;3665;51.034;13.642;2024-02-28T12:16:14;5.20;20.00
7248;DHT22;3665;51.034;13.642;2024-02-28T12:21:07;5.10;99.90
7248;DHT22;3665;51.034;13.642;2024-02-28T12:25:52;5.20;1.00
7248;DHT22;3665;51.034;13.642;2024-02-28T12:36:01;5.20;99.90
7248;DHT22;3665;51.034;13.642;2024-02-28T12:40:46;5.00;96.20
7248;DHT22;3665;51.034;13.642;2024-02-28T12:45:34;5.10;46.10
7248;DHT22;3665;51.034;13.642;2024-02-28T12:50:22;5.00;37.10
7248;DHT22;3665;51.034;13.642;2024-02-28T12:55:28;5.10;24.40
7248;DHT22;3665;51.034;13.642;2024-02-28T13:00:16;5.10;26.70
7248;DHT22;3665;51.034;13.642;2024-02-28T13:05:01;5.20;20.80
7248;DHT22;3665;51.034;13.642;2024-02-28T13:09:51;5.40;22.50
7248;DHT22;3665;51.034;13.642;2024-02-28T13:14:41;5.70;1.00
7248;DHT22;3665;51.034;13.642;2024-02-28T13:19:44;5.30;1.00
7248;DHT22;3665;51.034;13.642;2024-02-28T13:24:47;5.70;1.00
7248;DHT22;3665;51.034;13.642;2024-02-28T13:29:37;6.00;1.00
7248;DHT22;3665;51.034;13.642;2024-02-28T13:34:29;6.00;1.00
7248;DHT22;3665;51.034;13.642;2024-02-28T13:39:28;6.00;1.00
7248;DHT22;3665;51.034;13.642;2024-02-28T13:44:18;6.30;1.00
7248;DHT22;3665;51.034;13.642;2024-02-28T13:49:03;6.70;1.00
7248;DHT22;3665;51.034;13.642;2024-02-28T13:53:59;7.20;1.00
7248;DHT22;3665;51.034;13.642;2024-02-28T13:58:55;7.60;1.00
7248;DHT22;3665;51.034;13.642;2024-02-28T14:03:45;7.40;1.00
7248;DHT22;3665;51.034;13.642;2024-02-28T14:08:34;7.40;1.00
7248;DHT22;3665;51.034;13.642;2024-02-28T14:13:20;7.10;1.00
7248;DHT22;3665;51.034;13.642;2024-02-28T14:18:07;6.80;1.00
7248;DHT22;3665;51.034;13.642;2024-02-28T14:22:58;6.20;1.00
7248;DHT22;3665;51.034;13.642;2024-02-28T14:27:44;6.10;1.00
7248;DHT22;3665;51.034;13.642;2024-02-28T14:32:30;6.10;1.00
7248;DHT22;3665;51.034;13.642;2024-02-28T14:37:17;6.00;1.00
7248;DHT22;3665;51.034;13.642;2024-02-28T14:42:06;5.70;1.00
7248;DHT22;3665;51.034;13.642;2024-02-28T14:47:00;5.60;1.00
7248;DHT22;3665;51.034;13.642;2024-02-28T14:51:47;5.50;1.00
7248;DHT22;3665;51.034;13.642;2024-02-28T14:56:33;5.80;1.00
7248;DHT22;3665;51.034;13.642;2024-02-28T15:01:18;5.90;1.00
7248;DHT22;3665;51.034;13.642;2024-02-28T15:06:08;5.90;1.00
7248;DHT22;3665;51.034;13.642;2024-02-28T15:11:02;5.90;1.00
7248;DHT22;3665;51.034;13.642;2024-02-28T15:16:01;5.90;1.00
7248;DHT22;3665;51.034;13.642;2024-02-28T15:20:48;6.00;1.00
7248;DHT22;3665;51.034;13.642;2024-02-28T15:25:36;5.80;1.00
7248;DHT22;3665;51.034;13.642;2024-02-28T15:30:38;6.00;1.00
7248;DHT22;3665;51.034;13.642;2024-02-28T15:35:29;5.70;1.00
7248;DHT22;3665;51.034;13.642;2024-02-28T15:40:36;5.50;1.00
7248;DHT22;3665;51.034;13.642;2024-02-28T15:45:57;5.30;1.00
7248;DHT22;3665;51.034;13.642;2024-02-28T15:50:57;5.10;1.00
7248;DHT22;3665;51.034;13.642;2024-02-28T15:55:58;4.80;1.00
7248;DHT22;3665;51.034;13.642;2024-02-28T16:01:06;4.70;1.00
7248;DHT22;3665;51.034;13.642;2024-02-28T16:06:14;4.40;1.00
7248;DHT22;3665;51.034;13.642;2024-02-28T16:11:45;4.20;1.00
7248;DHT22;3665;51.034;13.642;2024-02-28T16:16:48;3.90;1.00
7248;DHT22;3665;51.034;13.642;2024-02-28T16:21:57;3.70;6.20
7248;DHT22;3665;51.034;13.642;2024-02-28T16:27:00;3.40;51.10
7248;DHT22;3665;51.034;13.642;2024-02-28T16:31:59;3.10;95.70
7248;DHT22;3665;51.034;13.642;2024-02-28T16:37:24;2.80;99.90
7248;DHT22;3665;51.034;13.642;2024-02-28T16:43:02;2.30;99.90
7248;DHT22;3665;51.034;13.642;2024-02-28T16:58:28;1.50;1.00
7248;DHT22;3665;51.034;13.642;2024-02-28T17:03:45;1.30;1.00
7248;DHT22;3665;51.034;13.642;2024-02-28T17:14:40;1.00;1.00
7248;DHT22;3665;51.034;13.642;2024-02-28T17:19:25;0.80;99.90
7248;DHT22;3665;51.034;13.642;2024-02-28T17:24:18;0.80;1.00
7248;DHT22;3665;51.034;13.642;2024-02-28T17:29:04;0.70;1.00
7248;DHT22;3665;51.034;13.642;2024-02-28T17:33:51;0.60;99.90
7248;DHT22;3665;51.034;13.642;2024-02-28T17:38:40;0.50;1.00
7248;DHT22;3665;51.034;13.642;2024-02-28T17:43:26;0.40;99.90
7248;DHT22;3665;51.034;13.642;2024-02-28T17:48:16;0.30;99.90
7248;DHT22;3665;51.034;13.642;2024-02-28T19:09:07;0.20;99.90
7248;DHT22;3665;51.034;13.642;2024-02-28T19:13:53;0.20;99.90
7248;DHT22;3665;51.034;13.642;2024-02-28T19:30:18;0.10;99.90
7248;DHT22;3665;51.034;13.642;2024-02-28T19:35:10;0.00;99.90
7248;DHT22;3665;51.034;13.642;2024-02-28T19:40:03;0.10;99.90
7248;DHT22;3665;51.034;13.642;2024-02-28T19:45:07;0.20;99.90
7248;DHT22;3665;51.034;13.642;2024-02-28T19:49:53;0.10;99.90
7248;DHT22;3665;51.034;13.642;2024-02-28T19:54:39;0.00;99.90
7248;DHT22;3665;51.034;13.642;2024-02-28T19:59:27;0.00;99.90
7248;DHT22;3665;51.034;13.642;2024-02-28T20:04:14;0.00;99.90
7248;DHT22;3665;51.034;13.642;2024-02-28T20:09:12;0.00;99.90
7248;DHT22;3665;51.034;13.642;2024-02-28T20:14:06;0.00;99.90
7248;DHT22;3665;51.034;13.642;2024-02-28T20:18:57;-0.10;99.90
7248;DHT22;3665;51.034;13.642;2024-02-28T20:23:43;-0.10;99.90
7248;DHT22;3665;51.034;13.642;2024-02-28T20:28:31;-0.20;99.90
7248;DHT22;3665;51.034;13.642;2024-02-28T20:33:21;-0.10;99.90
7248;DHT22;3665;51.034;13.642;2024-02-28T20:38:07;-0.10;99.90
7248;DHT22;3665;51.034;13.642;2024-02-28T20:42:55;-0.20;99.90
7248;DHT22;3665;51.034;13.642;2024-02-28T20:47:59;-0.20;99.90
7248;DHT22;3665;51.034;13.642;2024-02-28T20:52:49;-0.20;99.90
7248;DHT22;3665;51.034;13.642;2024-02-28T20:57:37;-0.20;99.90
7248;DHT22;3665;51.034;13.642;2024-02-28T21:02:22;-0.20;99.90
7248;DHT22;3665;51.034;13.642;2024-02-28T21:07:20;-0.20;99.90
7248;DHT22;3665;51.034;13.642;2024-02-28T21:12:30;-0.20;99.90
7248;DHT22;3665;51.034;13.642;2024-02-28T21:17:25;-0.10;99.90
7248;DHT22;3665;51.034;13.642;2024-02-28T21:22:16;-0.20;99.90
7248;DHT22;3665;51.034;13.642;2024-02-28T21:27:04;-0.20;99.90
7248;DHT22;3665;51.034;13.642;2024-02-28T21:32:00;-0.30;99.90
7248;DHT22;3665;51.034;13.642;2024-02-28T21:36:44;-0.30;99.90
7248;DHT22;3665;51.034;13.642;2024-02-28T21:41:36;-0.30;99.90
7248;DHT22;3665;51.034;13.642;2024-02-28T21:46:23;-0.20;99.90
7248;DHT22;3665;51.034;13.642;2024-02-28T21:51:08;-0.30;99.90
7248;DHT22;3665;51.034;13.642;2024-02-28T21:55:51;-0.30;99.90
7248;DHT22;3665;51.034;13.642;2024-02-28T22:00:54;-0.30;99.90
7248;DHT22;3665;51.034;13.642;2024-02-28T22:05:54;-0.30;99.90
7248;DHT22;3665;51.034;13.642;2024-02-28T22:10:41;-0.30;99.90
7248;DHT22;3665;51.034;13.642;2024-02-28T22:15:27;-0.40;99.90
7248;DHT22;3665;51.034;13.642;2024-02-28T22:20:34;-0.60;99.90
7248;DHT22;3665;51.034;13.642;2024-02-28T22:25:19;-0.50;99.90
7248;DHT22;3665;51.034;13.642;2024-02-28T22:30:12;-0.50;99.90
7248;DHT22;3665;51.034;13.642;2024-02-28T22:34:55;-0.50;99.90
7248;DHT22;3665;51.034;13.642;2024-02-28T22:39:42;-0.40;99.90
7248;DHT22;3665;51.034;13.642;2024-02-28T22:44:35;-0.30;99.90
7248;DHT22;3665;51.034;13.642;2024-02-28T22:49:18;-0.30;99.90
7248;DHT22;3665;51.034;13.642;2024-02-28T22:54:08;-0.20;99.90
7248;DHT22;3665;51.034;13.642;2024-02-28T22:58:58;-0.30;99.90
7248;DHT22;3665;51.034;13.642;2024-02-28T23:03:49;-0.20;99.90
7248;DHT22;3665;51.034;13.642;2024-02-28T23:08:34;-0.30;99.90
7248;DHT22;3665;51.034;13.642;2024-02-28T23:13:21;-0.60;99.90
7248;DHT22;3665;51.034;13.642;2024-02-28T23:18:18;-0.70;99.90
7248;DHT22;3665;51.034;13.642;2024-02-28T23:23:15;-0.90;99.90
7248;DHT22;3665;51.034;13.642;2024-02-28T23:28:03;-1.00;99.90
7248;DHT22;3665;51.034;13.642;2024-02-28T23:32:50;-1.10;99.90
7248;DHT22;3665;51.034;13.642;2024-02-28T23:37:38;-1.20;99.90
7248;DHT22;3665;51.034;13.642;2024-02-28T23:42:28;-1.20;99.90
7248;DHT22;3665;51.034;13.642;2024-02-28T23:47:15;-1.20;99.90
7248;DHT22;3665;51.034;13.642;2024-02-28T23:52:04;-1.10;99.90
7248;DHT22;3665;51.034;13.642;2024-02-28T23:56:51;-1.10;99.90
